sensor_id;sensor_type;location;lat;lon;timestamp;P1;durP1;ratioP1;P2;durP2;ratioP2
73437;SDS011;66471;56.532;21.020;2024-01-30T07:33:15;93.15;;;40.83;;
73437;SDS011;66471;56.532;21.020;2024-01-30T07:35:43;97.43;;;43.92;;
73437;SDS011;66471;56.532;21.020;2024-01-30T07:38:10;97.30;;;40.88;;
73437;SDS011;66471;56.532;21.020;2024-01-30T07:40:37;102.28;;;44.35;;
73437;SDS011;66471;56.532;21.020;2024-01-30T07:43:04;96.03;;;41.47;;
73437;SDS011;66471;56.532;21.020;2024-01-30T07:45:31;102.45;;;43.65;;
73437;SDS011;66471;56.532;21.020;2024-01-30T07:48:01;93.85;;;40.03;;
73437;SDS011;66471;56.532;21.020;2024-01-30T07:50:28;93.00;;;38.75;;
73437;SDS011;66471;56.532;21.020;2024-01-30T07:52:56;79.40;;;36.60;;
73437;SDS011;66471;56.532;21.020;2024-01-30T07:55:23;97.97;;;43.10;;
73437;SDS011;66471;56.532;21.020;2024-01-30T07:57:54;93.05;;;38.55;;
73437;SDS011;66471;56.532;21.020;2024-01-30T08:00:21;86.47;;;39.47;;
73437;SDS011;66471;56.532;21.020;2024-01-30T08:02:49;81.55;;;35.85;;
73437;SDS011;66471;56.532;21.020;2024-01-30T08:05:16;85.35;;;38.45;;
73437;SDS011;66471;56.532;21.020;2024-01-30T08:07:43;81.87;;;37.83;;
73437;SDS011;66471;56.532;21.020;2024-01-30T08:10:11;75.00;;;35.80;;
73437;SDS011;66471;56.532;21.020;2024-01-30T08:12:39;86.97;;;40.35;;
73437;SDS011;66471;56.532;21.020;2024-01-30T08:15:06;90.25;;;42.72;;
73437;SDS011;66471;56.532;21.020;2024-01-30T08:17:34;91.32;;;40.78;;
73437;SDS011;66471;56.532;21.020;2024-01-30T08:20:01;90.83;;;41.10;;
73437;SDS011;66471;56.532;21.020;2024-01-30T08:22:31;87.70;;;36.97;;
73437;SDS011;66471;56.532;21.020;2024-01-30T08:24:58;78.82;;;38.33;;
73437;SDS011;66471;56.532;21.020;2024-01-30T08:27:25;89.35;;;41.15;;
73437;SDS011;66471;56.532;21.020;2024-01-30T08:29:52;83.53;;;37.40;;
73437;SDS011;66471;56.532;21.020;2024-01-30T08:32:19;119.00;;;49.07;;
73437;SDS011;66471;56.532;21.020;2024-01-30T08:34:47;111.40;;;45.22;;
73437;SDS011;66471;56.532;21.020;2024-01-30T08:37:14;112.03;;;45.67;;
73437;SDS011;66471;56.532;21.020;2024-01-30T08:39:43;91.20;;;39.90;;
73437;SDS011;66471;56.532;21.020;2024-01-30T08:42:11;86.97;;;38.25;;
73437;SDS011;66471;56.532;21.020;2024-01-30T08:44:38;93.53;;;42.63;;
73437;SDS011;66471;56.532;21.020;2024-01-30T08:47:05;98.95;;;44.70;;
73437;SDS011;66471;56.532;21.020;2024-01-30T08:49:32;96.45;;;45.03;;
73437;SDS011;66471;56.532;21.020;2024-01-30T08:51:59;87.97;;;40.67;;
73437;SDS011;66471;56.532;21.020;2024-01-30T08:54:26;84.82;;;39.38;;
73437;SDS011;66471;56.532;21.020;2024-01-30T08:56:53;90.97;;;39.70;;
73437;SDS011;66471;56.532;21.020;2024-01-30T08:59:22;76.05;;;37.35;;
73437;SDS011;66471;56.532;21.020;2024-01-30T09:01:49;68.82;;;34.17;;
73437;SDS011;66471;56.532;21.020;2024-01-30T09:04:32;66.18;;;29.08;;
73437;SDS011;66471;56.532;21.020;2024-01-30T09:06:59;63.75;;;29.90;;
73437;SDS011;66471;56.532;21.020;2024-01-30T09:09:27;65.00;;;30.73;;
73437;SDS011;66471;56.532;21.020;2024-01-30T09:11:54;58.38;;;27.10;;
73437;SDS011;66471;56.532;21.020;2024-01-30T09:14:21;65.45;;;27.65;;
73437;SDS011;66471;56.532;21.020;2024-01-30T09:16:48;62.40;;;27.02;;
73437;SDS011;66471;56.532;21.020;2024-01-30T09:19:17;57.30;;;28.52;;
73437;SDS011;66471;56.532;21.020;2024-01-30T09:21:45;56.97;;;29.67;;
73437;SDS011;66471;56.532;21.020;2024-01-30T09:24:12;50.65;;;24.65;;
73437;SDS011;66471;56.532;21.020;2024-01-30T09:26:39;61.20;;;27.17;;
73437;SDS011;66471;56.532;21.020;2024-01-30T09:29:07;59.65;;;29.48;;
73437;SDS011;66471;56.532;21.020;2024-01-30T09:31:34;66.85;;;30.48;;
73437;SDS011;66471;56.532;21.020;2024-01-30T09:34:01;55.30;;;27.03;;
73437;SDS011;66471;56.532;21.020;2024-01-30T09:36:28;54.58;;;31.52;;
73437;SDS011;66471;56.532;21.020;2024-01-30T09:38:56;56.25;;;27.15;;
73437;SDS011;66471;56.532;21.020;2024-01-30T09:41:23;59.00;;;28.73;;
73437;SDS011;66471;56.532;21.020;2024-01-30T09:43:52;56.88;;;26.05;;
73437;SDS011;66471;56.532;21.020;2024-01-30T09:46:23;62.13;;;28.70;;
73437;SDS011;66471;56.532;21.020;2024-01-30T09:48:55;53.88;;;26.92;;
73437;SDS011;66471;56.532;21.020;2024-01-30T12:12:59;48.75;;;24.25;;
73437;SDS011;66471;56.532;21.020;2024-01-30T12:15:27;42.03;;;19.00;;
73437;SDS011;66471;56.532;21.020;2024-01-30T12:18:03;40.22;;;21.00;;
73437;SDS011;66471;56.532;21.020;2024-01-30T12:20:34;43.53;;;21.97;;
73437;SDS011;66471;56.532;21.020;2024-01-30T12:23:01;37.63;;;19.42;;
73437;SDS011;66471;56.532;21.020;2024-01-30T12:25:29;49.17;;;25.83;;
73437;SDS011;66471;56.532;21.020;2024-01-30T12:27:57;43.28;;;20.30;;
73437;SDS011;66471;56.532;21.020;2024-01-30T12:30:24;45.05;;;22.45;;
73437;SDS011;66471;56.532;21.020;2024-01-30T12:32:51;54.70;;;23.53;;
73437;SDS011;66471;56.532;21.020;2024-01-30T12:35:25;44.25;;;20.85;;
